Time;durP1;ratioP1;P1;durP2;ratioP2;P2;SDS_P1;SDS_P2;PMS_P1;PMS_P2;Temp;Humidity;BMP_temperature;BMP_pressure;BME280_temperature;BME280_humidity;BME280_pressure;Samples;Min_cycle;Max_cycle;Signal;HPM_P1;HPM_P2
2022/02/23 00:01:08;;;;;;;9.08;5.85;;;;;;;3.46;61.11;100106.20;1794279;79;21489;-72
2022/02/23 00:03:36;;;;;;;12.55;6.50;;;;;;;3.39;61.38;100106.27;1771517;79;21027;-73
2022/02/23 00:06:03;;;;;;;11.53;6.50;;;;;;;3.32;61.63;100105.52;1763484;80;21551;-73
2022/02/23 00:08:30;;;;;;;9.75;6.12;;;;;;;3.25;61.78;100108.74;1772004;79;21067;-73
2022/02/23 00:10:57;;;;;;;10.65;6.45;;;;;;;3.20;61.92;100105.97;1794522;79;21087;-73
2022/02/23 00:13:24;;;;;;;10.00;6.67;;;;;;;3.16;62.09;100114.84;1656133;79;9999745;-72
2022/02/23 00:15:52;;;;;;;11.85;7.00;;;;;;;3.13;62.21;100117.11;1768931;79;21041;-73
2022/02/23 00:18:19;;;;;;;9.13;6.30;;;;;;;3.10;62.33;100117.55;1779961;78;21061;-72
2022/02/23 00:20:46;;;;;;;10.00;6.17;;;;;;;3.09;62.39;100117.23;1784745;79;21104;-73
2022/02/23 00:23:12;;;;;;;10.38;6.37;;;;;;;3.07;62.55;100114.83;1776618;79;21702;-72
2022/02/23 00:25:39;;;;;;;10.18;6.25;;;;;;;3.04;62.63;100117.38;1772955;79;21029;-74
2022/02/23 00:28:06;;;;;;;9.85;5.87;;;;;;;3.02;62.66;100121.26;1794205;78;21077;-73
2022/02/23 00:30:34;;;;;;;8.38;5.67;;;;;;;3.01;62.76;100123.61;1794842;78;21029;-73
2022/02/23 00:33:00;;;;;;;9.33;6.28;;;;;;;2.95;62.90;100116.56;1785869;79;21050;-73
2022/02/23 00:35:27;;;;;;;9.38;6.17;;;;;;;2.91;63.00;100113.55;1765255;79;22313;-72
2022/02/23 00:37:54;;;;;;;9.80;5.78;;;;;;;2.88;63.07;100111.86;1786627;78;21129;-72
2022/02/23 00:40:20;;;;;;;9.90;6.33;;;;;;;2.86;63.18;100119.17;1788852;78;21136;-72
2022/02/23 00:42:47;;;;;;;11.85;6.53;;;;;;;2.82;63.37;100121.44;1772649;79;21030;-73
2022/02/23 00:45:13;;;;;;;11.45;6.80;;;;;;;2.77;63.48;100109.43;1794542;79;21082;-72
2022/02/23 00:47:40;;;;;;;9.33;6.22;;;;;;;2.76;63.70;100113.91;1773253;79;21786;-72
2022/02/23 00:50:08;;;;;;;9.38;6.33;;;;;;;2.75;63.84;100112.78;1794175;79;21619;-71
2022/02/23 00:52:35;;;;;;;9.80;6.03;;;;;;;2.76;63.88;100113.06;1794728;78;21097;-72
2022/02/23 00:55:03;;;;;;;12.70;7.12;;;;;;;2.74;63.92;100111.17;1778388;78;21101;-72
2022/02/23 00:57:30;;;;;;;11.15;7.53;;;;;;;2.73;63.96;100107.73;1779310;79;21388;-73
2022/02/23 00:59:57;;;;;;;12.18;6.92;;;;;;;2.73;64.00;100116.14;1804427;77;21549;-73
2022/02/23 01:02:26;;;;;;;12.58;7.33;;;;;;;2.71;64.01;100121.64;1779965;79;21021;-73
2022/02/23 01:04:54;;;;;;;10.65;7.30;;;;;;;2.70;64.08;100121.84;1794858;78;21123;-73
2022/02/23 01:07:21;;;;;;;11.60;7.45;;;;;;;2.69;64.12;100124.99;1785416;78;21017;-72
2022/02/23 01:09:48;;;;;;;12.00;7.05;;;;;;;2.67;64.18;100127.58;1778205;78;21568;-74
2022/02/23 01:12:14;;;;;;;11.83;7.05;;;;;;;2.64;64.23;100124.84;1775618;78;21075;-72
2022/02/23 01:14:41;;;;;;;11.28;7.55;;;;;;;2.61;64.31;100128.43;1764971;80;21042;-72
2022/02/23 01:17:09;;;;;;;11.70;7.00;;;;;;;2.57;64.42;100129.38;1774133;79;20999;-73
2022/02/23 01:19:37;;;;;;;10.82;7.05;;;;;;;2.53;64.53;100134.75;1796788;79;21046;-73
2022/02/23 01:22:04;;;;;;;10.08;7.03;;;;;;;2.51;64.63;100131.02;1786626;78;21050;-73
2022/02/23 01:24:32;;;;;;;12.03;7.17;;;;;;;2.48;64.70;100135.41;1779710;78;22522;-73
2022/02/23 01:26:58;;;;;;;11.43;7.08;;;;;;;2.48;64.79;100138.56;1789025;78;22368;-73
2022/02/23 01:29:25;;;;;;;11.48;7.33;;;;;;;2.45;64.95;100147.70;1788358;78;20978;-73
2022/02/23 01:31:52;;;;;;;8.80;6.35;;;;;;;2.43;65.11;100152.36;1789053;78;22182;-72
2022/02/23 01:34:18;;;;;;;11.20;7.25;;;;;;;2.44;65.36;100161.91;1792970;78;21038;-73
2022/02/23 01:36:47;;;;;;;11.00;6.87;;;;;;;2.46;65.54;100163.00;1778703;78;21053;-73
2022/02/23 01:39:13;;;;;;;12.60;7.28;;;;;;;2.48;65.67;100164.92;1779620;78;21505;-73
2022/02/23 01:41:41;;;;;;;10.23;6.87;;;;;;;2.56;65.79;100164.64;1783039;78;21006;-73
2022/02/23 01:44:08;;;;;;;10.30;6.60;;;;;;;2.65;65.85;100158.61;1783963;78;21038;-73
2022/02/23 01:46:35;;;;;;;11.68;7.55;;;;;;;2.75;65.90;100163.69;1780637;78;20946;-73
2022/02/23 01:49:01;;;;;;;11.43;6.70;;;;;;;2.85;65.88;100163.21;1784518;78;21018;-73
2022/02/23 01:51:30;;;;;;;12.25;6.87;;;;;;;2.96;65.88;100169.12;1776625;78;21010;-72
2022/02/23 01:53:56;;;;;;;9.33;6.42;;;;;;;3.04;65.84;100166.19;1765723;80;20967;-72
2022/02/23 01:56:25;;;;;;;8.65;5.97;;;;;;;3.13;65.79;100170.69;1767614;78;21161;-72
2022/02/23 01:58:52;;;;;;;11.70;6.90;;;;;;;3.21;65.75;100177.00;1778927;78;21074;-72
2022/02/23 02:01:20;;;;;;;10.23;6.70;;;;;;;3.30;65.66;100177.53;1783824;78;21514;-74
2022/02/23 02:03:48;;;;;;;10.58;6.30;;;;;;;3.38;65.54;100177.23;1789850;78;21019;-73
2022/02/23 02:06:14;;;;;;;8.75;5.70;;;;;;;3.46;65.43;100179.60;1784735;78;20995;-73
2022/02/23 02:08:41;;;;;;;10.08;6.20;;;;;;;3.53;65.34;100180.85;1752947;79;21073;-73
2022/02/23 02:11:08;;;;;;;9.28;6.97;;;;;;;3.59;65.25;100183.14;1763137;79;21476;-73
2022/02/23 02:13:35;;;;;;;9.80;6.62;;;;;;;3.63;65.15;100188.27;1727441;81;21529;-72
2022/02/23 02:16:01;;;;;;;10.10;6.45;;;;;;;3.64;65.02;100184.59;1749524;79;20969;-73
2022/02/23 02:18:29;;;;;;;9.28;6.58;;;;;;;3.62;64.96;100183.50;1717619;81;20925;-73
2022/02/23 02:20:55;;;;;;;9.80;6.40;;;;;;;3.60;64.84;100186.06;1727682;81;21048;-73
2022/02/23 02:23:22;;;;;;;10.45;7.28;;;;;;;3.54;64.77;100194.34;1753778;79;21018;-73
2022/02/23 02:25:49;;;;;;;10.78;6.78;;;;;;;3.50;64.71;100190.53;1753547;79;21139;-73
2022/02/23 02:28:16;;;;;;;9.73;6.05;;;;;;;3.46;64.65;100195.45;1753406;79;21009;-73
2022/02/23 02:30:42;;;;;;;11.10;7.28;;;;;;;3.41;64.61;100195.28;1750899;79;21610;-73
2022/02/23 02:33:09;;;;;;;10.58;7.35;;;;;;;3.33;64.63;100195.58;1755092;79;21080;-73
2022/02/23 02:35:36;;;;;;;10.55;6.80;;;;;;;3.29;64.66;100199.16;1751578;79;21123;-73
2022/02/23 02:38:03;;;;;;;11.55;6.75;;;;;;;3.27;64.65;100201.72;1748595;79;21048;-73
2022/02/23 02:40:32;;;;;;;11.12;6.92;;;;;;;3.26;64.77;100215.95;1752401;79;21044;-73
2022/02/23 02:42:58;;;;;;;10.00;6.97;;;;;;;3.28;64.94;100216.52;1755000;79;20954;-73
2022/02/23 02:45:26;;;;;;;11.25;7.05;;;;;;;3.32;65.03;100217.70;1752536;79;21021;-73
2022/02/23 02:47:54;;;;;;;11.40;7.55;;;;;;;3.35;65.12;100219.91;1747591;79;21032;-73
2022/02/23 02:50:20;;;;;;;12.03;7.17;;;;;;;3.40;65.20;100224.03;1748257;79;21663;-73
2022/02/23 02:52:47;;;;;;;10.18;6.90;;;;;;;3.44;65.23;100215.97;1753173;79;21093;-72
2022/02/23 02:55:14;;;;;;;11.85;6.97;;;;;;;3.52;65.26;100233.34;1754219;79;21045;-72
2022/02/23 02:57:40;;;;;;;10.05;6.30;;;;;;;3.57;65.24;100236.67;1758210;79;21017;-75
2022/02/23 03:00:10;;;;;;;11.00;6.75;;;;;;;3.58;65.19;100240.92;1761924;79;21461;-73
2022/02/23 03:02:36;;;;;;;11.10;6.97;;;;;;;3.55;65.19;100255.36;1788891;78;21185;-73
2022/02/23 03:05:03;;;;;;;11.03;7.40;;;;;;;3.50;65.26;100250.74;1788982;78;21033;-73
2022/02/23 03:07:30;;;;;;;10.78;7.40;;;;;;;3.50;65.36;100254.70;1793485;78;21081;-73
2022/02/23 03:09:56;;;;;;;11.40;6.95;;;;;;;3.48;65.39;100250.14;1791860;78;21431;-73
2022/02/23 03:12:24;;;;;;;10.20;6.50;;;;;;;3.45;65.65;100247.93;1791660;78;21026;-74
2022/02/23 03:14:51;;;;;;;9.10;6.28;;;;;;;3.43;65.85;100252.64;1792539;78;21570;-72
2022/02/23 03:17:18;;;;;;;10.30;6.85;;;;;;;3.41;66.19;100248.59;1791349;78;21058;-72
2022/02/23 03:19:44;;;;;;;12.23;6.78;;;;;;;3.36;66.28;100249.78;1796242;78;21106;-73
2022/02/23 03:22:11;;;;;;;10.00;6.00;;;;;;;3.33;66.55;100254.17;1787363;78;21424;-73
2022/02/23 03:24:38;;;;;;;10.53;7.22;;;;;;;3.28;66.70;100259.56;1798523;78;20975;-72
2022/02/23 03:27:07;;;;;;;10.82;6.72;;;;;;;3.24;66.89;100257.58;1792041;78;21137;-72
2022/02/23 03:29:34;;;;;;;10.65;6.75;;;;;;;3.19;67.02;100254.28;1792414;78;21109;-72
2022/02/23 03:32:00;;;;;;;11.45;7.25;;;;;;;3.14;67.18;100255.42;1784592;78;21078;-72
2022/02/23 03:34:28;;;;;;;12.58;7.28;;;;;;;3.12;67.31;100254.81;1787147;78;21532;-71
2022/02/23 03:36:56;;;;;;;9.55;6.53;;;;;;;3.11;67.33;100253.73;1799410;78;20987;-73
2022/02/23 03:39:23;;;;;;;9.73;6.08;;;;;;;3.09;67.35;100252.61;1795325;78;21699;-73
2022/02/23 03:41:50;;;;;;;10.35;6.62;;;;;;;3.04;67.44;100251.94;1791023;78;20998;-73
2022/02/23 03:44:17;;;;;;;9.30;6.50;;;;;;;2.99;67.55;100255.72;1787285;78;21062;-73
2022/02/23 03:46:43;;;;;;;11.70;6.95;;;;;;;2.95;67.66;100257.18;1793704;78;20990;-72
2022/02/23 03:49:10;;;;;;;11.70;7.17;;;;;;;2.91;67.86;100260.47;1795030;78;21037;-73
2022/02/23 03:51:37;;;;;;;9.60;6.80;;;;;;;2.86;67.98;100259.77;1774405;78;21499;-72
2022/02/23 03:54:04;;;;;;;10.13;6.65;;;;;;;2.81;68.15;100263.58;1771092;80;20998;-73
2022/02/23 03:56:40;;;;;;;10.40;6.78;;;;;;;2.75;68.35;100257.83;1784333;78;21540;-73
2022/02/23 03:59:08;;;;;;;9.93;6.90;;;;;;;2.69;68.55;100263.44;1792956;78;21525;-73
2022/02/23 04:01:36;;;;;;;10.82;6.50;;;;;;;2.64;68.78;100263.80;1802742;78;21053;-73
2022/02/23 04:04:04;;;;;;;10.20;6.55;;;;;;;2.61;69.23;100266.85;1798933;78;21580;-74
2022/02/23 04:06:31;;;;;;;8.88;6.30;;;;;;;2.56;69.52;100266.95;1793288;78;21014;-73
2022/02/23 04:09:00;;;;;;;9.48;6.20;;;;;;;2.54;69.71;100266.38;1794876;78;21505;-73
2022/02/23 04:11:27;;;;;;;9.18;5.87;;;;;;;2.53;69.96;100275.80;1790792;78;21136;-73
2022/02/23 04:13:54;;;;;;;7.62;5.58;;;;;;;2.52;70.38;100276.83;1788201;78;20996;-73
2022/02/23 04:16:21;;;;;;;8.83;6.30;;;;;;;2.55;70.48;100277.20;1755579;79;22001;-73
2022/02/23 04:18:48;;;;;;;7.08;4.95;;;;;;;2.57;70.53;100283.09;1717894;82;21089;-73
2022/02/23 04:21:14;;;;;;;7.37;4.55;;;;;;;2.60;70.10;100283.19;1762793;81;21083;-73
2022/02/23 04:23:42;;;;;;;6.83;4.15;;;;;;;2.69;69.64;100291.13;1758084;79;21046;-73
2022/02/23 04:26:10;;;;;;;7.72;4.28;;;;;;;2.76;68.65;100300.31;1752681;79;20935;-74
2022/02/23 04:28:37;;;;;;;6.30;3.98;;;;;;;2.84;68.30;100298.77;1750367;79;21574;-73
2022/02/23 04:31:04;;;;;;;7.42;3.95;;;;;;;2.90;67.75;100306.34;1754360;79;21006;-74
2022/02/23 04:33:30;;;;;;;8.55;4.15;;;;;;;2.91;67.13;100312.72;1756088;79;21579;-74
2022/02/23 04:35:58;;;;;;;6.72;4.00;;;;;;;2.95;66.81;100309.14;1759338;79;21500;-73
2022/02/23 04:38:25;;;;;;;7.10;3.60;;;;;;;2.93;65.91;100316.45;1750343;79;21484;-73
2022/02/23 04:40:52;;;;;;;6.35;3.52;;;;;;;2.95;65.33;100309.95;1736409;81;21129;-73
2022/02/23 04:43:19;;;;;;;5.80;2.80;;;;;;;2.98;64.62;100313.99;1737214;79;21085;-73
2022/02/23 04:45:46;;;;;;;5.85;3.02;;;;;;;2.99;63.86;100316.92;1756626;79;21115;-73
2022/02/23 04:48:13;;;;;;;5.45;2.95;;;;;;;2.99;63.37;100321.68;1751480;79;21001;-73
2022/02/23 04:50:41;;;;;;;5.47;2.75;;;;;;;2.98;63.08;100324.55;1753854;79;21076;-73
2022/02/23 04:53:07;;;;;;;5.17;2.95;;;;;;;2.97;62.84;100329.02;1752445;79;21207;-73
2022/02/23 04:55:35;;;;;;;5.20;2.65;;;;;;;2.93;62.55;100333.11;1751465;79;21073;-73
2022/02/23 04:58:07;;;;;;;6.12;3.20;;;;;;;2.90;62.24;100334.85;1757030;79;21080;-73
2022/02/23 05:00:37;;;;;;;6.47;2.80;;;;;;;2.86;61.99;100340.23;1752505;79;21045;-74
2022/02/23 05:03:04;;;;;;;5.03;2.42;;;;;;;2.81;61.67;100344.02;1736537;82;21556;-73
2022/02/23 05:05:31;;;;;;;6.83;3.20;;;;;;;2.76;61.45;100342.52;1739957;79;21143;-73
2022/02/23 05:07:58;;;;;;;4.72;2.70;;;;;;;2.75;61.27;100352.78;1745407;79;21084;-72
2022/02/23 05:10:25;;;;;;;3.85;2.35;;;;;;;2.72;61.16;100350.55;1735959;81;21029;-71
2022/02/23 05:12:51;;;;;;;5.83;2.75;;;;;;;2.69;60.73;100353.61;1736358;81;21040;-72
2022/02/23 05:15:18;;;;;;;5.95;2.90;;;;;;;2.68;60.59;100361.23;1735331;81;21036;-73
2022/02/23 05:17:46;;;;;;;4.80;2.37;;;;;;;2.67;60.49;100367.53;1736302;81;21055;-73
2022/02/23 05:20:12;;;;;;;4.70;2.70;;;;;;;2.67;60.20;100378.08;1736454;82;21065;-73
2022/02/23 05:22:39;;;;;;;4.12;2.60;;;;;;;2.66;60.27;100373.30;1736164;81;20961;-74
2022/02/23 05:25:07;;;;;;;6.20;2.80;;;;;;;2.65;60.21;100374.32;1705712;81;21002;-73
2022/02/23 05:27:33;;;;;;;5.42;2.62;;;;;;;2.66;60.22;100389.11;1744491;79;21002;-73
2022/02/23 05:30:00;;;;;;;4.45;2.50;;;;;;;2.65;60.09;100391.97;1736758;82;21034;-74
2022/02/23 05:32:28;;;;;;;5.33;2.70;;;;;;;2.64;59.98;100390.36;1742958;79;21072;-73
2022/02/23 05:34:55;;;;;;;5.05;3.00;;;;;;;2.62;59.95;100397.15;1751645;79;21044;-73
2022/02/23 05:37:21;;;;;;;5.75;3.70;;;;;;;2.62;59.78;100394.52;1750430;79;21088;-74
2022/02/23 05:39:50;;;;;;;6.37;3.10;;;;;;;2.64;59.81;100395.64;1753553;79;21076;-73
2022/02/23 05:42:16;;;;;;;6.17;2.87;;;;;;;2.65;59.86;100401.20;1752749;79;21181;-73
2022/02/23 05:44:43;;;;;;;4.55;2.58;;;;;;;2.66;59.93;100398.86;1754645;79;21041;-73
2022/02/23 05:47:10;;;;;;;6.83;3.12;;;;;;;2.70;60.05;100405.33;1760238;79;21469;-73
2022/02/23 05:49:37;;;;;;;6.15;2.72;;;;;;;2.72;60.07;100409.38;1756996;79;21120;-73
2022/02/23 05:52:04;;;;;;;5.67;3.02;;;;;;;2.75;60.05;100405.01;1750220;79;20997;-73
2022/02/23 05:54:34;;;;;;;4.92;2.77;;;;;;;2.78;59.94;100405.11;1755919;79;21147;-73
2022/02/23 05:57:00;;;;;;;6.10;3.05;;;;;;;2.84;59.89;100406.91;1755898;79;21056;-74
2022/02/23 05:59:27;;;;;;;5.58;2.62;;;;;;;2.86;59.81;100408.81;1751158;79;21094;-73
2022/02/23 06:01:54;;;;;;;5.78;2.90;;;;;;;2.88;59.80;100419.97;1752429;79;21114;-73
2022/02/23 06:04:20;;;;;;;6.50;3.22;;;;;;;2.93;59.66;100417.53;1751351;79;21097;-74
2022/02/23 06:06:47;;;;;;;6.12;2.95;;;;;;;2.97;59.48;100425.32;1790160;78;22137;-73
2022/02/23 06:09:15;;;;;;;5.90;2.90;;;;;;;3.04;59.28;100424.77;1792523;78;20990;-74
2022/02/23 06:11:43;;;;;;;5.03;2.90;;;;;;;3.07;58.88;100427.51;1793496;78;21516;-73
2022/02/23 06:14:11;;;;;;;5.35;2.80;;;;;;;3.07;58.69;100421.42;1790326;78;21023;-73
2022/02/23 06:16:39;;;;;;;6.20;2.92;;;;;;;3.14;58.71;100427.47;1789379;78;21053;-73
2022/02/23 06:19:06;;;;;;;5.75;3.27;;;;;;;3.20;58.62;100439.83;1794638;78;21598;-73
2022/02/23 06:21:32;;;;;;;5.25;3.15;;;;;;;3.23;58.12;100438.90;1788201;78;21022;-73
2022/02/23 06:23:59;;;;;;;6.05;3.05;;;;;;;3.31;57.81;100443.63;1788873;78;20931;-74
2022/02/23 06:26:26;;;;;;;5.65;3.05;;;;;;;3.36;57.21;100443.81;1796365;78;21100;-73
2022/02/23 06:28:52;;;;;;;5.62;2.77;;;;;;;3.39;57.12;100444.20;1785505;78;21543;-73
2022/02/23 06:31:20;;;;;;;5.17;2.70;;;;;;;3.45;56.57;100447.28;1795401;78;21165;-74
2022/02/23 06:33:47;;;;;;;5.55;2.70;;;;;;;3.48;55.75;100457.42;1792278;78;21068;-73
2022/02/23 06:36:14;;;;;;;4.65;2.60;;;;;;;3.52;55.46;100445.92;1790122;78;21053;-73
2022/02/23 06:38:41;;;;;;;3.90;2.45;;;;;;;3.55;55.30;100449.97;1794891;78;21469;-72
2022/02/23 06:41:17;;;;;;;4.97;2.55;;;;;;;3.58;54.78;100449.55;1790375;78;21124;-73
2022/02/23 06:43:44;;;;;;;5.42;2.42;;;;;;;3.61;54.65;100447.28;1786763;78;20971;-72
2022/02/23 06:46:11;;;;;;;5.97;2.52;;;;;;;3.65;54.27;100448.98;1780320;78;21034;-72
2022/02/23 06:48:40;;;;;;;5.83;3.10;;;;;;;3.72;54.08;100460.34;1784532;78;21462;-73
2022/02/23 06:51:08;;;;;;;4.72;2.47;;;;;;;3.78;53.90;100461.30;1782560;78;21018;-73
2022/02/23 06:53:35;;;;;;;4.50;2.40;;;;;;;3.87;53.47;100468.75;1789040;78;21145;-73
2022/02/23 06:56:01;;;;;;;6.05;2.55;;;;;;;3.91;52.84;100467.80;1790487;78;21510;-72
2022/02/23 06:58:28;;;;;;;4.30;2.50;;;;;;;3.94;52.75;100469.50;1788957;78;21029;-73
2022/02/23 07:00:56;;;;;;;4.78;2.22;;;;;;;4.02;52.77;100467.13;1786438;78;21038;-74
2022/02/23 07:03:23;;;;;;;5.33;2.80;;;;;;;4.07;52.23;100468.59;1789669;78;21002;-74
2022/02/23 07:05:50;;;;;;;7.47;3.72;;;;;;;4.13;52.03;100471.70;1792150;78;21529;-72
2022/02/23 07:08:16;;;;;;;6.22;2.90;;;;;;;4.20;51.67;100468.99;1785368;78;21527;-72
2022/02/23 07:10:43;;;;;;;5.87;2.77;;;;;;;4.28;51.28;100477.98;1791272;78;21065;-71
2022/02/23 07:13:12;;;;;;;4.40;2.50;;;;;;;4.33;50.95;100480.77;1787587;78;20999;-73
2022/02/23 07:15:39;;;;;;;4.70;2.80;;;;;;;4.32;50.38;100480.48;1784849;78;21148;-72
2022/02/23 07:18:05;;;;;;;4.30;2.70;;;;;;;4.37;50.67;100477.17;1784733;78;20980;-72
2022/02/23 07:20:34;;;;;;;6.58;2.60;;;;;;;4.44;50.39;100485.84;1793888;78;21140;-73
2022/02/23 07:23:00;;;;;;;4.60;2.20;;;;;;;4.45;50.38;100479.55;1786176;78;20934;-73
2022/02/23 07:25:28;;;;;;;4.75;2.67;;;;;;;4.55;50.29;100476.41;1786482;78;21092;-72
2022/02/23 07:27:55;;;;;;;6.55;2.90;;;;;;;4.63;49.97;100491.98;1796094;78;21037;-72
2022/02/23 07:30:21;;;;;;;4.90;2.75;;;;;;;4.69;49.57;100491.91;1790315;78;21057;-73
2022/02/23 07:32:48;;;;;;;5.20;2.72;;;;;;;4.77;49.11;100497.94;1789048;78;22137;-72
2022/02/23 07:35:15;;;;;;;5.47;2.35;;;;;;;4.82;48.22;100495.45;1788796;78;21109;-72
2022/02/23 07:37:43;;;;;;;4.35;2.52;;;;;;;4.88;47.78;100499.88;1792113;78;21104;-72
2022/02/23 07:40:18;;;;;;;6.37;2.40;;;;;;;4.89;47.98;100494.86;1775321;78;21050;-72
2022/02/23 07:42:45;;;;;;;4.90;2.37;;;;;;;4.93;47.23;100498.67;1772348;80;21021;-74
2022/02/23 07:45:13;;;;;;;3.60;2.42;;;;;;;4.95;47.10;100499.28;1784659;78;20990;-74
2022/02/23 07:47:40;;;;;;;3.87;2.50;;;;;;;4.92;46.59;100504.49;1782854;78;20934;-72
2022/02/23 07:50:14;;;;;;;4.37;2.30;;;;;;;4.90;46.79;100513.19;1787478;78;21073;-73
2022/02/23 07:52:39;;;;;;;6.55;2.83;;;;;;;4.92;47.05;100511.11;1791930;78;21117;-72
2022/02/23 07:55:07;;;;;;;4.65;2.30;;;;;;;5.02;47.44;100511.11;1792938;78;21536;-73
2022/02/23 07:57:34;;;;;;;4.58;2.60;;;;;;;5.15;47.21;100513.09;1796088;78;21129;-71
2022/02/23 08:00:03;;;;;;;4.67;2.50;;;;;;;5.26;46.08;100502.77;1771528;79;21160;-71
2022/02/23 08:02:32;;;;;;;4.78;2.30;;;;;;;5.28;45.61;100516.09;1770213;80;21093;-70
2022/02/23 08:04:59;;;;;;;6.10;2.50;;;;;;;5.27;45.17;100517.13;1790372;78;20978;-71
2022/02/23 08:07:27;;;;;;;5.40;2.60;;;;;;;5.22;45.14;100523.59;1791774;78;21084;-72
2022/02/23 08:09:55;;;;;;;5.10;3.12;;;;;;;5.17;45.69;100523.47;1786025;78;21480;-72
2022/02/23 08:12:22;;;;;;;5.55;3.00;;;;;;;5.18;45.64;100511.32;1792775;78;20991;-72
2022/02/23 08:14:48;;;;;;;5.00;2.50;;;;;;;5.23;45.24;100507.19;1789716;78;21050;-72
2022/02/23 08:20:00;;;;;;;4.80;2.70;;;;;;;5.34;45.35;100505.94;1794958;78;21078;-71
2022/02/23 08:22:31;;;;;;;4.60;2.58;;;;;;;5.42;45.53;100506.13;1789967;78;21330;-72
2022/02/23 08:24:58;;;;;;;5.00;3.15;;;;;;;5.44;45.64;100504.08;1787385;78;21038;-71
2022/02/23 08:27:25;;;;;;;4.05;2.50;;;;;;;5.49;45.26;100512.14;1788472;78;21069;-71
2022/02/23 08:29:53;;;;;;;5.45;2.80;;;;;;;5.55;44.96;100509.13;1789249;78;21131;-72
2022/02/23 08:32:20;;;;;;;5.85;2.98;;;;;;;5.59;45.17;100512.44;1786973;78;21549;-71
2022/02/23 08:34:48;;;;;;;4.62;2.33;;;;;;;5.66;44.78;100517.65;1786394;78;21772;-72
2022/02/23 08:37:15;;;;;;;4.85;2.70;;;;;;;5.67;44.76;100507.33;1754206;79;21508;-72
2022/02/23 08:39:44;;;;;;;5.85;2.70;;;;;;;5.70;45.05;100510.05;1717504;81;21049;-71
2022/02/23 08:42:13;;;;;;;6.67;2.70;;;;;;;5.68;44.73;100530.66;1759475;79;21069;-73
2022/02/23 08:44:41;;;;;;;4.47;2.35;;;;;;;5.64;44.64;100507.78;1761386;79;21639;-72
2022/02/23 08:47:08;;;;;;;4.22;2.60;;;;;;;5.66;44.96;100500.42;1723065;81;21082;-72
2022/02/23 08:49:35;;;;;;;4.10;2.52;;;;;;;5.68;45.05;100504.97;1757078;79;21058;-71
2022/02/23 08:52:02;;;;;;;4.58;2.40;;;;;;;5.66;44.65;100496.45;1720692;81;21088;-71
2022/02/23 08:54:28;;;;;;;4.37;2.58;;;;;;;5.68;44.67;100491.72;1718410;81;20968;-72
2022/02/23 08:56:56;;;;;;;3.75;2.20;;;;;;;5.78;44.86;100495.95;1705619;82;21049;-72
2022/02/23 08:59:22;;;;;;;4.22;2.37;;;;;;;5.87;45.09;100491.94;1705557;82;21106;-72
2022/02/23 09:01:49;;;;;;;4.97;2.60;;;;;;;5.96;44.42;100500.94;1703904;82;21510;-72
2022/02/23 09:04:16;;;;;;;5.17;2.52;;;;;;;6.00;44.09;100498.11;1706100;82;20941;-73
2022/02/23 09:06:43;;;;;;;5.03;2.72;;;;;;;6.01;44.62;100498.39;1706835;84;20996;-72
2022/02/23 09:09:11;;;;;;;4.62;2.62;;;;;;;6.05;44.43;100500.88;1706036;83;21035;-73
2022/02/23 09:11:38;;;;;;;4.03;2.47;;;;;;;6.13;43.99;100493.12;1742102;81;21951;-73
2022/02/23 09:14:05;;;;;;;5.10;2.87;;;;;;;6.17;44.23;100491.09;1705560;82;21000;-73
2022/02/23 09:16:33;;;;;;;5.25;2.60;;;;;;;6.27;44.67;100500.62;1705515;82;21072;-72
2022/02/23 09:19:00;;;;;;;5.30;2.75;;;;;;;6.36;44.16;100506.92;1742257;82;20957;-72
2022/02/23 09:21:27;;;;;;;6.25;3.67;;;;;;;6.33;43.79;100502.36;1705683;82;21049;-73
2022/02/23 09:23:53;;;;;;;5.42;3.02;;;;;;;6.33;43.83;100501.03;1705755;82;22008;-72
2022/02/23 09:26:20;;;;;;;5.67;2.72;;;;;;;6.37;43.84;100504.03;1736396;81;21091;-73
2022/02/23 09:28:47;;;;;;;5.12;2.55;;;;;;;6.45;43.95;100494.91;1736579;81;21129;-73
2022/02/23 09:31:14;;;;;;;4.87;2.60;;;;;;;6.56;43.77;100495.44;1736392;81;21026;-71
2022/02/23 09:33:41;;;;;;;5.15;2.62;;;;;;;6.71;43.65;100494.45;1736608;81;21034;-70
2022/02/23 09:36:08;;;;;;;4.70;2.47;;;;;;;6.88;43.26;100492.38;1736201;81;21977;-73
2022/02/23 09:38:35;;;;;;;4.37;2.33;;;;;;;6.98;42.88;100492.09;1736624;82;21014;-73
2022/02/23 09:41:04;;;;;;;4.47;2.60;;;;;;;7.07;42.48;100477.91;1736565;81;21075;-73
2022/02/23 09:43:31;;;;;;;4.75;2.65;;;;;;;7.19;42.28;100484.53;1736501;81;21458;-72
2022/02/23 09:45:58;;;;;;;5.03;2.67;;;;;;;7.28;42.15;100484.45;1736533;81;20974;-72
2022/02/23 09:48:28;;;;;;;4.30;2.58;;;;;;;7.28;42.33;100487.91;1751289;79;21479;-72
2022/02/23 09:50:57;;;;;;;5.17;2.58;;;;;;;7.36;42.09;100488.56;1766868;79;20998;-71
2022/02/23 09:53:24;;;;;;;4.83;2.58;;;;;;;7.47;42.18;100494.37;1767975;79;20982;-73
2022/02/23 09:55:56;;;;;;;4.78;2.65;;;;;;;7.59;41.93;100492.98;1766905;81;21545;-73
2022/02/23 09:58:20;;;;;;;4.75;2.87;;;;;;;7.64;41.32;100496.54;1766658;79;20947;-73
2022/02/23 10:00:47;;;;;;;4.17;2.22;;;;;;;7.60;41.52;100492.75;1766740;79;21129;-72
2022/02/23 10:03:14;;;;;;;4.72;2.75;;;;;;;7.64;41.38;100492.55;1737600;81;21533;-73
2022/02/23 10:05:43;;;;;;;4.90;2.67;;;;;;;7.60;40.79;100496.74;1766780;79;21520;-73
2022/02/23 10:08:12;;;;;;;4.87;2.62;;;;;;;7.60;40.58;100486.11;1767256;79;21014;-74
2022/02/23 10:10:43;;;;;;;4.83;2.72;;;;;;;7.60;40.13;100486.11;1766716;79;21150;-72
2022/02/23 10:13:10;;;;;;;6.40;2.87;;;;;;;7.59;40.20;100482.34;1767413;79;21105;-73
2022/02/23 10:15:42;;;;;;;4.70;2.50;;;;;;;7.63;40.40;100486.12;1766526;79;21053;-71
2022/02/23 10:18:15;;;;;;;4.78;2.80;;;;;;;7.70;40.75;100482.30;1767615;79;26711;-72
2022/02/23 10:20:42;;;;;;;4.83;2.80;;;;;;;7.85;40.29;100482.27;1766702;79;21053;-73
2022/02/23 10:23:18;;;;;;;4.80;2.85;;;;;;;7.94;39.86;100474.17;1767430;80;21026;-72
2022/02/23 10:25:58;;;;;;;5.55;2.67;;;;;;;7.96;39.32;100480.05;1766493;79;21057;-72
2022/02/23 10:28:30;;;;;;;4.30;2.67;;;;;;;7.88;40.33;100479.12;1791384;79;21002;-73
2022/02/23 10:31:00;;;;;;;4.00;2.50;;;;;;;7.89;39.95;100480.20;1791957;79;21514;-69
2022/02/23 10:33:36;;;;;;;4.47;2.87;;;;;;;7.92;39.95;100486.37;1792298;79;20990;-73
2022/02/23 10:36:16;;;;;;;3.70;2.37;;;;;;;7.93;40.03;100480.02;1786020;78;21037;-71
2022/02/23 10:38:45;;;;;;;4.90;2.30;;;;;;;7.97;39.94;100474.50;1780799;78;21527;-73
2022/02/23 10:41:30;;;;;;;5.03;2.80;;;;;;;8.02;39.32;100479.08;1788830;78;21045;-73
2022/02/23 10:43:56;;;;;;;4.85;2.45;;;;;;;8.08;39.64;100487.43;1748753;79;20978;-72
2022/02/23 10:46:24;;;;;;;4.25;2.60;;;;;;;8.14;38.63;100478.48;1721203;81;21507;-72
2022/02/23 10:49:02;;;;;;;3.90;2.12;;;;;;;8.24;38.20;100476.50;1705154;82;21063;-73
2022/02/23 10:51:45;;;;;;;4.80;2.40;;;;;;;8.43;38.07;100479.75;1735416;81;21139;-72
2022/02/23 10:54:12;;;;;;;4.12;2.40;;;;;;;8.49;37.57;100470.79;1705594;83;20952;-72
2022/02/23 10:56:41;;;;;;;3.98;2.35;;;;;;;8.52;37.48;100477.45;1736385;81;21001;-73
2022/02/23 10:59:15;;;;;;;4.53;2.40;;;;;;;8.46;37.87;100473.94;1736928;81;21495;-73
2022/02/23 11:01:45;;;;;;;4.20;2.58;;;;;;;8.39;37.19;100474.61;1705384;82;21068;-73
2022/02/23 11:04:12;;;;;;;4.65;2.70;;;;;;;8.30;37.40;100471.55;1736439;81;21520;-72
2022/02/23 11:06:39;;;;;;;4.40;2.50;;;;;;;8.29;37.36;100458.47;1790342;79;21122;-72
2022/02/23 11:09:08;;;;;;;3.70;2.17;;;;;;;8.32;36.49;100465.44;1791236;79;21078;-71
2022/02/23 11:11:35;;;;;;;4.53;1.80;;;;;;;8.38;35.96;100473.01;1790385;80;21009;-72
2022/02/23 11:14:02;;;;;;;3.10;1.80;;;;;;;8.43;34.77;100470.44;1772022;78;21006;-71
2022/02/23 11:16:32;;;;;;;5.17;1.90;;;;;;;8.42;34.10;100463.48;1767481;78;21420;-71
2022/02/23 11:19:01;;;;;;;4.33;2.00;;;;;;;8.35;34.44;100465.48;1765427;80;20979;-72
2022/02/23 11:21:36;;;;;;;3.60;1.67;;;;;;;8.40;34.51;100469.59;1777719;78;21022;-72
2022/02/23 11:24:09;;;;;;;4.47;2.00;;;;;;;8.43;34.59;100464.58;1773275;78;21166;-73
2022/02/23 11:26:36;;;;;;;;;;;;;;;8.51;34.60;100463.87;1768119;80;21101;-71
2022/02/23 11:29:20;;;;;;;3.62;2.00;;;;;;;8.60;34.64;100461.08;1765519;80;21162;-72
2022/02/23 11:31:50;;;;;;;5.28;2.33;;;;;;;8.70;34.30;100461.21;1764154;80;21006;-72
2022/02/23 11:34:19;;;;;;;6.25;2.40;;;;;;;8.74;34.94;100456.19;1765747;80;21077;-73
2022/02/23 11:36:46;;;;;;;3.42;1.80;;;;;;;8.75;34.65;100451.14;1776184;78;21037;-72